Time;durP1;ratioP1;P1;durP2;ratioP2;P2;SDS_P1;SDS_P2;PMS_P1;PMS_P2;Temp;Humidity;BMP_temperature;BMP_pressure;BME280_temperature;BME280_humidity;BME280_pressure;Samples;Min_cycle;Max_cycle;Signal;HPM_P1;HPM_P2
2022/12/11 00:00:11;;;;;;;107.03;38.50;;;;;;;;;;5078320;28;20215;-70
2022/12/11 00:02:37;;;;;;;113.97;39.63;;;;;;;;;;5078854;28;20176;-70
2022/12/11 00:05:03;;;;;;;111.13;39.93;;;;;;;;;;5078380;28;20413;-70
2022/12/11 00:07:29;;;;;;;115.97;38.20;;;;;;;;;;5078473;28;20182;-70
2022/12/11 00:09:55;;;;;;;98.83;38.03;;;;;;;;;;5096535;28;20785;-70
2022/12/11 00:12:21;;;;;;;92.90;34.77;;;;;;;;;;5078117;28;20485;-69
2022/12/11 00:14:47;;;;;;;94.87;34.27;;;;;;;;;;5078064;28;20174;-70
2022/12/11 00:17:13;;;;;;;103.80;35.83;;;;;;;;;;5078199;28;20279;-70
2022/12/11 00:19:39;;;;;;;94.27;35.43;;;;;;;;;;5077973;28;20197;-70
2022/12/11 00:22:05;;;;;;;101.67;36.60;;;;;;;;;;5096012;28;20209;-70
2022/12/11 00:24:31;;;;;;;102.93;37.20;;;;;;;;;;5096108;28;20169;-70
2022/12/11 00:26:57;;;;;;;99.10;35.43;;;;;;;;;;5096327;28;20245;-70
2022/12/11 00:29:23;;;;;;;93.37;34.20;;;;;;;;;;5077778;28;20966;-70
2022/12/11 00:31:49;;;;;;;83.93;32.13;;;;;;;;;;5095747;28;20215;-70
2022/12/11 00:34:15;;;;;;;81.80;34.17;;;;;;;;;;5096295;28;20173;-70
2022/12/11 00:36:41;;;;;;;95.33;34.73;;;;;;;;;;5095850;28;20170;-68
2022/12/11 00:39:07;;;;;;;97.33;35.73;;;;;;;;;;5096243;28;20442;-70
2022/12/11 00:41:33;;;;;;;91.53;34.20;;;;;;;;;;5077651;28;20707;-70
2022/12/11 00:43:59;;;;;;;81.57;33.93;;;;;;;;;;5077457;28;20416;-70
2022/12/11 00:46:25;;;;;;;82.33;33.47;;;;;;;;;;5096292;28;20778;-70
2022/12/11 00:48:52;;;;;;;79.83;33.47;;;;;;;;;;5077672;28;20197;-70
2022/12/11 00:51:18;;;;;;;82.87;33.00;;;;;;;;;;5095360;28;20668;-70
2022/12/11 00:53:44;;;;;;;82.50;33.83;;;;;;;;;;5095993;28;20416;-70
2022/12/11 00:56:11;;;;;;;78.87;33.17;;;;;;;;;;5095713;28;20181;-70
2022/12/11 00:58:37;;;;;;;81.83;32.70;;;;;;;;;;5076316;28;20209;-70
2022/12/11 01:01:10;;;;;;;78.83;32.97;;;;;;;;;;5077683;28;20477;-69
2022/12/11 01:03:36;;;;;;;68.97;30.90;;;;;;;;;;5077030;28;20225;-69
2022/12/11 01:06:02;;;;;;;75.63;30.47;;;;;;;;;;5076968;28;20431;-70
2022/12/11 01:08:28;;;;;;;70.07;29.93;;;;;;;;;;5094974;28;20476;-70
2022/12/11 01:11:05;;;;;;;75.17;31.43;;;;;;;;;;5077669;28;20430;-69
2022/12/11 01:13:31;;;;;;;72.87;30.03;;;;;;;;;;5076782;28;20679;-70
2022/12/11 01:15:57;;;;;;;60.87;28.77;;;;;;;;;;5095258;28;20414;-70
2022/12/11 01:18:23;;;;;;;61.70;28.27;;;;;;;;;;5076747;28;20869;-70
2022/12/11 01:20:49;;;;;;;71.73;31.73;;;;;;;;;;5095106;28;20212;-70
2022/12/11 01:23:15;;;;;;;80.67;34.90;;;;;;;;;;5095003;28;20410;-68
2022/12/11 01:25:42;;;;;;;72.50;32.23;;;;;;;;;;5095000;28;20177;-68
2022/12/11 01:28:08;;;;;;;66.97;30.40;;;;;;;;;;5076726;28;20259;-70
2022/12/11 01:30:34;;;;;;;78.13;32.73;;;;;;;;;;5076762;28;20425;-70
2022/12/11 01:33:00;;;;;;;71.93;32.27;;;;;;;;;;5076883;28;20423;-70
2022/12/11 01:35:26;;;;;;;70.33;32.07;;;;;;;;;;5079005;28;20455;-70
2022/12/11 01:37:52;;;;;;;74.67;33.50;;;;;;;;;;5088500;28;20194;-70
2022/12/11 01:40:19;;;;;;;77.70;32.40;;;;;;;;;;5106992;28;20471;-69
2022/12/11 01:42:45;;;;;;;74.13;31.67;;;;;;;;;;5108481;28;20494;-70
2022/12/11 01:45:14;;;;;;;81.30;32.13;;;;;;;;;;5082993;28;20419;-68
2022/12/11 01:47:40;;;;;;;75.63;31.27;;;;;;;;;;5079258;28;20181;-70
2022/12/11 01:50:06;;;;;;;75.10;33.33;;;;;;;;;;5095763;28;20799;-70
2022/12/11 01:52:32;;;;;;;77.20;33.50;;;;;;;;;;5094597;28;20175;-70
2022/12/11 01:54:59;;;;;;;75.20;31.93;;;;;;;;;;5076298;28;20456;-70
2022/12/11 01:57:25;;;;;;;77.47;31.40;;;;;;;;;;5076869;28;20201;-70
2022/12/11 01:59:51;;;;;;;69.00;30.70;;;;;;;;;;5076530;28;20982;-70
2022/12/11 02:02:20;;;;;;;74.77;32.30;;;;;;;;;;5094727;28;20545;-69
2022/12/11 02:04:47;;;;;;;74.97;30.13;;;;;;;;;;5076112;28;20315;-70
2022/12/11 02:07:13;;;;;;;70.80;28.83;;;;;;;;;;5094927;28;20456;-70
2022/12/11 02:09:40;;;;;;;64.57;28.53;;;;;;;;;;5076978;28;20438;-70
2022/12/11 02:12:18;;;;;;;71.43;30.67;;;;;;;;;;5078027;28;20427;-70
2022/12/11 02:14:53;;;;;;;69.47;31.13;;;;;;;;;;5102444;28;20415;-70
2022/12/11 02:17:54;;;;;;;72.50;29.07;;;;;;;;;;5101741;28;20859;-69
2022/12/11 02:20:20;;;;;;;67.40;30.73;;;;;;;;;;5043184;28;20469;-70
2022/12/11 02:23:01;;;;;;;69.60;30.27;;;;;;;;;;5075679;28;20420;-70
2022/12/11 02:25:46;;;;;;;71.17;30.57;;;;;;;;;;5076451;28;20423;-69
2022/12/11 02:28:21;;;;;;;76.20;32.33;;;;;;;;;;5094696;28;20447;-69
2022/12/11 02:30:50;;;;;;;74.03;31.50;;;;;;;;;;5076449;28;20501;-70
2022/12/11 02:33:18;;;;;;;75.50;32.03;;;;;;;;;;5075624;28;20424;-69
2022/12/11 02:35:45;;;;;;;75.57;30.90;;;;;;;;;;5075759;28;20424;-69
2022/12/11 02:38:28;;;;;;;74.77;33.40;;;;;;;;;;5093693;28;20479;-70
2022/12/11 02:40:55;;;;;;;71.30;31.93;;;;;;;;;;5093779;28;20533;-68
2022/12/11 02:43:22;;;;;;;75.27;31.20;;;;;;;;;;5093597;28;20407;-70
2022/12/11 02:45:49;;;;;;;72.00;31.77;;;;;;;;;;5075173;28;20895;-70
2022/12/11 02:48:16;;;;;;;78.17;32.77;;;;;;;;;;5093408;28;20417;-70
2022/12/11 02:50:45;;;;;;;76.37;32.20;;;;;;;;;;5094357;28;20413;-70
2022/12/11 02:53:12;;;;;;;75.77;33.57;;;;;;;;;;5093951;28;20407;-70
2022/12/11 02:55:40;;;;;;;80.43;33.80;;;;;;;;;;5075647;28;20760;-70
2022/12/11 02:58:09;;;;;;;75.80;31.93;;;;;;;;;;5076768;28;20429;-70
2022/12/11 03:00:35;;;;;;;78.47;32.10;;;;;;;;;;5076033;28;20494;-69
2022/12/11 03:03:01;;;;;;;70.27;32.17;;;;;;;;;;5093614;28;20456;-70
2022/12/11 03:05:27;;;;;;;81.80;33.23;;;;;;;;;;5093708;28;20170;-69
2022/12/11 03:07:53;;;;;;;70.53;31.13;;;;;;;;;;5075246;28;20410;-70
2022/12/11 03:10:19;;;;;;;75.40;32.10;;;;;;;;;;5093439;28;20266;-69
2022/12/11 03:12:47;;;;;;;77.93;31.93;;;;;;;;;;5093145;28;20596;-70
2022/12/11 03:15:15;;;;;;;79.23;32.90;;;;;;;;;;5093523;28;20447;-69
2022/12/11 03:17:49;;;;;;;72.97;31.30;;;;;;;;;;5075069;28;20415;-69
2022/12/11 03:20:18;;;;;;;79.00;33.67;;;;;;;;;;5093354;28;20804;-69
2022/12/11 03:22:56;;;;;;;83.37;34.10;;;;;;;;;;5076698;28;20422;-70
2022/12/11 03:25:24;;;;;;;79.83;31.90;;;;;;;;;;5079084;28;20894;-70
2022/12/11 03:27:57;;;;;;;77.50;32.70;;;;;;;;;;5097084;28;20502;-70
2022/12/11 03:30:24;;;;;;;79.90;33.07;;;;;;;;;;5096694;28;20438;-70
2022/12/11 03:32:52;;;;;;;80.90;33.07;;;;;;;;;;5106320;22;20487;-69
2022/12/11 03:35:20;;;;;;;90.43;34.73;;;;;;;;;;5098011;28;20415;-70
2022/12/11 03:37:47;;;;;;;81.30;35.10;;;;;;;;;;5099655;28;20411;-70
2022/12/11 03:40:15;;;;;;;83.03;32.80;;;;;;;;;;5100054;28;20407;-70
2022/12/11 03:42:43;;;;;;;81.70;34.73;;;;;;;;;;5099549;28;20852;-70
2022/12/11 03:45:10;;;;;;;83.77;36.07;;;;;;;;;;5097569;28;20957;-71
2022/12/11 03:47:37;;;;;;;88.50;35.27;;;;;;;;;;5097977;28;20839;-71
2022/12/11 03:50:05;;;;;;;84.93;35.00;;;;;;;;;;5097776;28;20415;-70
2022/12/11 03:52:31;;;;;;;81.63;34.10;;;;;;;;;;5098805;28;20423;-70
2022/12/11 03:54:59;;;;;;;81.07;33.97;;;;;;;;;;5098954;28;20879;-70
2022/12/11 03:57:28;;;;;;;85.83;35.30;;;;;;;;;;5097047;28;20430;-71
2022/12/11 03:59:54;;;;;;;75.47;34.50;;;;;;;;;;5098468;28;20415;-70
2022/12/11 04:02:20;;;;;;;83.50;35.27;;;;;;;;;;5097143;28;20510;-69
2022/12/11 04:04:46;;;;;;;84.87;35.63;;;;;;;;;;5098268;28;20410;-70
2022/12/11 04:07:12;;;;;;;84.27;37.00;;;;;;;;;;5098960;28;20683;-71
2022/12/11 04:09:38;;;;;;;72.53;33.13;;;;;;;;;;5097311;28;20188;-69
2022/12/11 04:12:04;;;;;;;80.57;34.67;;;;;;;;;;5096657;28;20280;-70
2022/12/11 04:24:13;;;;;;;72.33;33.93;;;;;;;;;;5098923;28;20483;-69
2022/12/11 04:25:30;;;;;;;68.30;32.50;;;;;;;;;;5098796;28;20422;-71
2022/12/11 04:27:56;;;;;;;68.23;31.20;;;;;;;;;;5098002;28;20403;-70
2022/12/11 04:30:23;;;;;;;66.20;30.83;;;;;;;;;;5096956;28;20196;-69
2022/12/11 04:32:49;;;;;;;69.77;32.47;;;;;;;;;;5097593;28;20220;-71
2022/12/11 04:35:16;;;;;;;72.70;32.00;;;;;;;;;;5095794;28;20894;-70
2022/12/11 04:37:42;;;;;;;68.47;30.80;;;;;;;;;;5097824;28;20415;-69
2022/12/11 04:40:10;;;;;;;67.33;31.33;;;;;;;;;;5097569;28;20500;-70
2022/12/11 04:42:36;;;;;;;60.07;31.30;;;;;;;;;;5097699;28;20548;-70
2022/12/11 04:45:02;;;;;;;57.67;28.80;;;;;;;;;;5098110;28;20453;-69
2022/12/11 04:47:28;;;;;;;58.07;29.97;;;;;;;;;;5098208;28;20404;-75
2022/12/11 04:49:54;;;;;;;54.47;28.20;;;;;;;;;;5097810;28;20479;-71
2022/12/11 04:52:20;;;;;;;58.97;29.70;;;;;;;;;;5097674;28;20262;-70
2022/12/11 04:54:46;;;;;;;62.10;29.73;;;;;;;;;;5096841;28;20188;-70
2022/12/11 04:57:12;;;;;;;52.40;28.17;;;;;;;;;;5097750;28;20491;-71
2022/12/11 04:59:38;;;;;;;58.30;30.00;;;;;;;;;;5096926;28;20458;-72
2022/12/11 05:02:04;;;;;;;60.20;30.83;;;;;;;;;;5096423;28;20284;-71
2022/12/11 05:04:31;;;;;;;53.43;29.40;;;;;;;;;;5097447;28;20790;-72
2022/12/11 05:06:57;;;;;;;59.93;29.17;;;;;;;;;;5095953;28;20408;-69
2022/12/11 05:09:24;;;;;;;54.40;28.87;;;;;;;;;;5097484;28;20406;-70
2022/12/11 05:11:50;;;;;;;57.53;29.63;;;;;;;;;;5095875;28;20181;-70
2022/12/11 05:14:16;;;;;;;56.03;29.80;;;;;;;;;;5097719;28;20519;-69
2022/12/11 05:16:42;;;;;;;59.70;30.03;;;;;;;;;;5097290;28;20589;-71
2022/12/11 05:19:09;;;;;;;54.40;30.23;;;;;;;;;;5097053;28;20443;-70
2022/12/11 05:21:35;;;;;;;54.33;29.33;;;;;;;;;;5097645;28;20454;-69
2022/12/11 05:24:01;;;;;;;56.27;29.67;;;;;;;;;;5096606;28;20422;-70
2022/12/11 05:26:27;;;;;;;61.50;32.00;;;;;;;;;;5097404;28;20197;-67
2022/12/11 05:28:53;;;;;;;57.17;30.97;;;;;;;;;;5097445;28;20204;-70
2022/12/11 05:31:21;;;;;;;58.07;31.63;;;;;;;;;;5097107;28;20263;-70
2022/12/11 05:33:49;;;;;;;63.00;31.87;;;;;;;;;;5096922;28;21003;-69
2022/12/11 05:36:17;;;;;;;59.70;30.83;;;;;;;;;;5095714;28;20415;-70
2022/12/11 05:38:43;;;;;;;63.20;33.10;;;;;;;;;;5096738;28;20812;-70
2022/12/11 05:41:11;;;;;;;61.70;32.33;;;;;;;;;;5097111;28;20451;-69
2022/12/11 05:43:37;;;;;;;59.30;31.07;;;;;;;;;;5097186;28;20204;-71
2022/12/11 05:46:08;;;;;;;59.63;32.03;;;;;;;;;;5097060;28;20403;-70
2022/12/11 05:48:34;;;;;;;63.63;32.73;;;;;;;;;;5097012;28;20230;-68
2022/12/11 05:51:00;;;;;;;62.10;30.93;;;;;;;;;;5096374;28;20514;-69
2022/12/11 05:53:27;;;;;;;57.77;31.37;;;;;;;;;;5096456;28;20434;-70
2022/12/11 05:55:53;;;;;;;57.23;30.93;;;;;;;;;;5098462;28;20411;-69
2022/12/11 05:58:19;;;;;;;50.23;29.80;;;;;;;;;;5098259;28;20411;-69
2022/12/11 06:00:46;;;;;;;52.90;29.00;;;;;;;;;;5096950;28;20238;-70
2022/12/11 06:03:11;;;;;;;55.40;30.27;;;;;;;;;;5094837;28;20507;-70
2022/12/11 06:05:38;;;;;;;55.00;31.17;;;;;;;;;;5096469;28;20826;-69
2022/12/11 06:08:04;;;;;;;61.00;30.53;;;;;;;;;;5095672;28;20209;-70
2022/12/11 06:10:30;;;;;;;61.30;31.27;;;;;;;;;;5096547;28;20418;-70
2022/12/11 06:12:56;;;;;;;61.37;31.20;;;;;;;;;;5095339;28;20471;-70
2022/12/11 06:15:22;;;;;;;57.63;30.37;;;;;;;;;;5095256;28;20429;-70
2022/12/11 06:17:48;;;;;;;56.90;30.43;;;;;;;;;;5095416;28;20697;-71
2022/12/11 06:20:14;;;;;;;53.43;29.67;;;;;;;;;;5096093;28;20528;-70
2022/12/11 06:22:40;;;;;;;59.20;30.13;;;;;;;;;;5094879;28;20330;-70
2022/12/11 06:25:06;;;;;;;51.63;28.67;;;;;;;;;;5095015;28;20178;-68
2022/12/11 06:27:32;;;;;;;55.87;30.30;;;;;;;;;;5096656;28;20657;-70
2022/12/11 06:29:58;;;;;;;54.13;30.17;;;;;;;;;;5096370;28;20414;-70
2022/12/11 06:32:24;;;;;;;55.90;30.00;;;;;;;;;;5095515;28;20482;-70
2022/12/11 06:34:50;;;;;;;52.37;30.17;;;;;;;;;;5096746;28;20406;-69
2022/12/11 06:37:16;;;;;;;53.73;29.60;;;;;;;;;;5097153;28;20177;-71
2022/12/11 06:39:42;;;;;;;54.83;30.40;;;;;;;;;;5095975;28;20184;-70
2022/12/11 06:42:08;;;;;;;53.63;29.20;;;;;;;;;;5095353;28;20201;-70
2022/12/11 06:44:34;;;;;;;58.07;29.87;;;;;;;;;;5096576;28;20180;-69
2022/12/11 06:47:00;;;;;;;53.00;28.90;;;;;;;;;;5095441;28;20555;-70
2022/12/11 06:49:26;;;;;;;52.30;29.37;;;;;;;;;;5095619;28;20205;-70
2022/12/11 06:51:52;;;;;;;52.73;28.67;;;;;;;;;;5096899;28;20580;-69
2022/12/11 06:54:18;;;;;;;52.47;28.50;;;;;;;;;;5095439;28;20442;-70
2022/12/11 06:56:44;;;;;;;57.97;30.23;;;;;;;;;;5096279;28;20550;-70
2022/12/11 06:59:13;;;;;;;54.13;29.60;;;;;;;;;;5098869;28;20746;-70
2022/12/11 07:01:39;;;;;;;51.23;28.67;;;;;;;;;;5099914;28;20196;-70
2022/12/11 07:04:05;;;;;;;55.53;30.23;;;;;;;;;;5098457;28;20867;-70
2022/12/11 07:06:31;;;;;;;55.37;31.10;;;;;;;;;;5099934;28;20406;-70
2022/12/11 07:08:57;;;;;;;88.33;46.63;;;;;;;;;;5098595;28;20260;-70
2022/12/11 07:11:23;;;;;;;96.13;52.17;;;;;;;;;;5100150;28;20176;-70
2022/12/11 07:13:49;;;;;;;57.17;32.03;;;;;;;;;;5097935;28;20205;-69
2022/12/11 07:16:16;;;;;;;75.87;43.20;;;;;;;;;;5099065;28;20422;-72
2022/12/11 07:18:43;;;;;;;61.83;34.40;;;;;;;;;;5099944;28;20448;-70
2022/12/11 07:21:11;;;;;;;56.23;31.93;;;;;;;;;;5098089;28;20454;-70
2022/12/11 07:23:37;;;;;;;54.17;30.90;;;;;;;;;;5099353;28;20455;-70
2022/12/11 07:26:04;;;;;;;49.77;28.17;;;;;;;;;;5099828;28;20407;-70
2022/12/11 07:28:30;;;;;;;49.27;27.67;;;;;;;;;;5099597;28;20438;-69
2022/12/11 07:30:56;;;;;;;53.67;28.63;;;;;;;;;;5098002;28;20418;-70
2022/12/11 07:33:22;;;;;;;45.53;26.60;;;;;;;;;;5099307;28;20216;-70
2022/12/11 07:35:48;;;;;;;60.20;31.60;;;;;;;;;;5099531;28;20407;-70
2022/12/11 07:38:14;;;;;;;58.37;31.67;;;;;;;;;;5097867;28;20185;-70
2022/12/11 07:40:40;;;;;;;71.40;39.93;;;;;;;;;;5099356;28;20499;-70
2022/12/11 07:43:06;;;;;;;55.20;33.27;;;;;;;;;;5097903;28;20204;-70
2022/12/11 07:45:32;;;;;;;59.97;35.30;;;;;;;;;;5097804;28;20411;-69
2022/12/11 07:47:58;;;;;;;55.47;31.20;;;;;;;;;;5099149;28;20182;-69
2022/12/11 07:50:24;;;;;;;46.80;28.97;;;;;;;;;;5099382;28;20173;-70
2022/12/11 07:52:51;;;;;;;56.67;29.97;;;;;;;;;;5099339;28;20250;-72
2022/12/11 07:55:17;;;;;;;50.43;28.07;;;;;;;;;;5098110;28;20494;-72
2022/12/11 07:57:43;;;;;;;52.00;30.00;;;;;;;;;;5098260;28;20443;-71
2022/12/11 08:00:10;;;;;;;51.27;28.40;;;;;;;;;;5098977;28;20191;-69
2022/12/11 08:02:36;;;;;;;53.03;28.90;;;;;;;;;;5098655;28;20812;-70
2022/12/11 08:05:02;;;;;;;53.27;29.07;;;;;;;;;;5098150;28;20449;-69
2022/12/11 08:07:28;;;;;;;48.43;26.77;;;;;;;;;;5099762;28;20403;-70
2022/12/11 08:09:54;;;;;;;44.80;26.07;;;;;;;;;;5099554;28;20641;-70
2022/12/11 08:12:20;;;;;;;45.27;26.83;;;;;;;;;;5098289;28;20445;-71
2022/12/11 08:14:46;;;;;;;50.80;27.50;;;;;;;;;;5099824;28;20208;-71
2022/12/11 08:17:12;;;;;;;49.67;26.00;;;;;;;;;;5097413;28;20534;-70
2022/12/11 08:19:38;;;;;;;39.87;24.13;;;;;;;;;;5098210;28;20558;-70
2022/12/11 08:22:04;;;;;;;41.50;24.03;;;;;;;;;;5099262;28;20462;-70
2022/12/11 08:24:31;;;;;;;41.77;23.47;;;;;;;;;;5098546;28;20185;-71
2022/12/11 08:26:57;;;;;;;42.83;23.60;;;;;;;;;;5098835;28;20411;-70
2022/12/11 08:29:23;;;;;;;41.00;25.00;;;;;;;;;;5097097;28;20411;-71
2022/12/11 08:31:49;;;;;;;39.53;23.47;;;;;;;;;;5096928;28;20177;-70
2022/12/11 08:34:15;;;;;;;38.17;23.13;;;;;;;;;;5098530;28;20213;-70
2022/12/11 08:36:41;;;;;;;41.50;24.97;;;;;;;;;;5098427;28;20498;-70
2022/12/11 08:39:07;;;;;;;40.67;24.30;;;;;;;;;;5097336;28;20427;-70
2022/12/11 08:41:33;;;;;;;39.43;23.50;;;;;;;;;;5098252;28;20550;-70
2022/12/11 08:44:00;;;;;;;41.23;23.53;;;;;;;;;;5098187;28;20669;-71
2022/12/11 08:46:27;;;;;;;38.20;24.57;;;;;;;;;;5098498;28;20189;-72
2022/12/11 08:48:54;;;;;;;40.77;23.97;;;;;;;;;;5098178;28;20782;-71
2022/12/11 08:51:21;;;;;;;36.37;20.93;;;;;;;;;;5096565;28;20429;-69
2022/12/11 08:53:47;;;;;;;38.67;21.67;;;;;;;;;;5098008;28;20942;-72
2022/12/11 08:56:14;;;;;;;35.30;21.93;;;;;;;;;;5098727;28;20498;-71
2022/12/11 08:58:41;;;;;;;36.53;21.73;;;;;;;;;;5096754;28;20499;-71
2022/12/11 09:01:08;;;;;;;37.40;22.43;;;;;;;;;;5097706;28;20462;-70
2022/12/11 09:03:34;;;;;;;36.00;22.57;;;;;;;;;;5096432;28;20526;-69
2022/12/11 09:06:03;;;;;;;41.47;23.57;;;;;;;;;;5098059;28;20407;-69
2022/12/11 09:08:29;;;;;;;35.23;22.87;;;;;;;;;;5096261;28;20466;-70
2022/12/11 09:10:55;;;;;;;35.33;22.23;;;;;;;;;;5096565;28;20426;-70
2022/12/11 09:13:21;;;;;;;36.03;21.40;;;;;;;;;;5097484;28;20427;-70
2022/12/11 09:15:47;;;;;;;33.67;21.97;;;;;;;;;;5097003;28;20415;-70
2022/12/11 09:18:13;;;;;;;40.83;22.77;;;;;;;;;;5096912;28;20269;-70
2022/12/11 09:20:39;;;;;;;32.27;21.33;;;;;;;;;;5094836;28;20199;-70
2022/12/11 09:23:05;;;;;;;36.63;22.03;;;;;;;;;;5098659;28;20226;-70
2022/12/11 09:25:31;;;;;;;36.03;22.73;;;;;;;;;;5097981;28;20407;-70
2022/12/11 09:27:57;;;;;;;32.73;21.03;;;;;;;;;;5097375;28;20208;-71
2022/12/11 09:30:23;;;;;;;40.37;23.07;;;;;;;;;;5097929;28;20653;-70
2022/12/11 09:32:49;;;;;;;30.20;20.20;;;;;;;;;;5097215;28;20220;-71
2022/12/11 09:35:15;;;;;;;31.13;19.87;;;;;;;;;;5098352;28;20407;-70
2022/12/11 09:37:41;;;;;;;32.37;21.10;;;;;;;;;;5097651;28;20546;-70
2022/12/11 09:40:09;;;;;;;28.63;19.90;;;;;;;;;;5096273;28;20635;-71
2022/12/11 09:42:46;;;;;;;30.33;19.23;;;;;;;;;;5096758;28;20212;-71
2022/12/11 09:45:14;;;;;;;30.90;20.23;;;;;;;;;;5095877;28;20455;-71
2022/12/11 09:47:42;;;;;;;30.80;19.93;;;;;;;;;;5096941;28;20403;-69
2022/12/11 09:50:23;;;;;;;30.37;22.07;;;;;;;;;;5097355;28;20446;-70
2022/12/11 09:53:13;;;;;;;29.50;18.87;;;;;;;;;;5096435;28;20439;-70
2022/12/11 09:55:55;;;;;;;28.33;18.87;;;;;;;;;;5096474;28;20403;-71
2022/12/11 09:58:30;;;;;;;28.07;18.73;;;;;;;;;;5096817;28;20391;-71
2022/12/11 10:01:01;;;;;;;27.47;19.23;;;;;;;;;;5095917;28;20482;-70
2022/12/11 10:03:27;;;;;;;30.63;19.37;;;;;;;;;;5096786;28;20851;-71
2022/12/11 10:05:59;;;;;;;28.57;18.57;;;;;;;;;;5095862;28;20415;-71
2022/12/11 10:08:36;;;;;;;25.73;18.20;;;;;;;;;;5096504;28;20172;-70
2022/12/11 10:11:05;;;;;;;25.77;17.80;;;;;;;;;;5096676;28;20879;-70
2022/12/11 10:13:39;;;;;;;27.47;17.30;;;;;;;;;;5096695;28;20434;-71
2022/12/11 10:16:14;;;;;;;28.03;18.60;;;;;;;;;;5096638;28;20427;-71
2022/12/11 10:18:40;;;;;;;29.67;19.50;;;;;;;;;;5096863;28;20411;-73
2022/12/11 10:21:06;;;;;;;26.67;18.63;;;;;;;;;;5095704;28;20828;-71
2022/12/11 10:23:40;;;;;;;28.27;18.33;;;;;;;;;;5095734;28;20794;-72
2022/12/11 10:26:07;;;;;;;27.17;18.00;;;;;;;;;;5096151;28;20415;-71
2022/12/11 10:28:33;;;;;;;25.20;17.27;;;;;;;;;;5097001;28;20446;-71
2022/12/11 10:31:18;;;;;;;26.00;17.63;;;;;;;;;;5096364;28;20934;-71
2022/12/11 10:33:50;;;;;;;26.83;17.13;;;;;;;;;;5100179;28;20851;-72
2022/12/11 10:36:19;;;;;;;25.50;18.03;;;;;;;;;;5099806;28;20415;-71
2022/12/11 10:38:46;;;;;;;25.17;18.33;;;;;;;;;;5100711;28;20480;-72
2022/12/11 10:41:14;;;;;;;27.03;19.30;;;;;;;;;;5100561;28;20454;-71
2022/12/11 10:43:44;;;;;;;27.77;17.73;;;;;;;;;;5101037;28;20423;-71
2022/12/11 10:46:15;;;;;;;29.83;19.10;;;;;;;;;;5099706;28;20415;-71
2022/12/11 10:48:46;;;;;;;26.90;17.47;;;;;;;;;;5099646;28;20416;-71
2022/12/11 10:51:11;;;;;;;24.87;16.17;;;;;;;;;;5101460;28;20413;-71
2022/12/11 10:53:39;;;;;;;28.27;18.10;;;;;;;;;;5100951;28;20438;-69
2022/12/11 10:56:05;;;;;;;32.90;19.73;;;;;;;;;;5099298;28;20214;-69
2022/12/11 10:58:32;;;;;;;28.30;19.53;;;;;;;;;;5100444;28;20417;-72
2022/12/11 11:01:19;;;;;;;30.23;20.03;;;;;;;;;;5099037;28;20458;-71
2022/12/11 11:03:57;;;;;;;32.37;20.47;;;;;;;;;;5100666;28;20426;-74
2022/12/11 11:06:23;;;;;;;28.27;18.40;;;;;;;;;;5099334;28;20415;-73
2022/12/11 11:08:57;;;;;;;24.97;18.43;;;;;;;;;;5101455;28;20971;-73
2022/12/11 11:11:28;;;;;;;26.93;18.23;;;;;;;;;;5100453;28;20407;-73
2022/12/11 11:14:11;;;;;;;33.67;23.90;;;;;;;;;;5098916;28;20526;-71
2022/12/11 11:16:38;;;;;;;69.10;48.63;;;;;;;;;;5100258;28;20387;-72
2022/12/11 11:19:04;;;;;;;53.63;35.93;;;;;;;;;;5098917;28;20488;-73
2022/12/11 11:21:32;;;;;;;28.87;19.63;;;;;;;;;;5100555;28;20825;-73
2022/12/11 11:23:58;;;;;;;25.50;17.83;;;;;;;;;;5099196;28;20438;-74
2022/12/11 11:26:24;;;;;;;24.20;17.93;;;;;;;;;;5099355;28;20417;-72
2022/12/11 11:28:55;;;;;;;29.50;18.53;;;;;;;;;;5100167;28;20865;-72
2022/12/11 11:31:22;;;;;;;29.87;19.20;;;;;;;;;;5098872;28;20268;-73
2022/12/11 11:33:55;;;;;;;31.97;18.20;;;;;;;;;;5098262;28;20970;-74
2022/12/11 11:36:23;;;;;;;24.90;17.63;;;;;;;;;;5100739;28;20398;-73
2022/12/11 11:39:02;;;;;;;27.73;18.60;;;;;;;;;;5100437;28;20411;-73
2022/12/11 11:41:42;;;;;;;28.33;18.10;;;;;;;;;;5098595;28;20504;-74
2022/12/11 11:44:10;;;;;;;33.10;20.63;;;;;;;;;;5098196;28;20441;-73
2022/12/11 11:46:36;;;;;;;31.43;19.73;;;;;;;;;;5099970;28;20773;-73
2022/12/11 11:49:21;;;;;;;29.17;19.17;;;;;;;;;;5098829;28;20851;-72
2022/12/11 11:51:47;;;;;;;29.23;19.53;;;;;;;;;;5099961;28;20176;-73
2022/12/11 11:54:28;;;;;;;30.70;20.67;;;;;;;;;;5100688;28;20565;-73
2022/12/11 11:56:55;;;;;;;28.67;19.40;;;;;;;;;;5099794;28;20676;-71
2022/12/11 11:59:31;;;;;;;29.90;21.33;;;;;;;;;;5098284;28;20411;-74
2022/12/11 12:01:57;;;;;;;30.50;20.00;;;;;;;;;;5100555;28;20476;-74
2022/12/11 12:04:24;;;;;;;29.57;20.50;;;;;;;;;;5099794;28;20438;-74
2022/12/11 12:06:50;;;;;;;31.03;21.67;;;;;;;;;;5100097;28;20536;-72
2022/12/11 12:09:19;;;;;;;39.57;25.90;;;;;;;;;;5100505;28;20910;-73
2022/12/11 12:12:08;;;;;;;32.33;18.40;;;;;;;;;;5099021;28;20543;-74
2022/12/11 12:14:41;;;;;;;29.17;20.07;;;;;;;;;;5093568;28;20773;-72
2022/12/11 12:17:10;;;;;;;29.67;22.00;;;;;;;;;;5098816;28;20423;-74
2022/12/11 12:19:41;;;;;;;33.30;23.77;;;;;;;;;;5099190;28;20419;-72
2022/12/11 12:22:26;;;;;;;30.53;21.87;;;;;;;;;;5098599;28;20454;-74
2022/12/11 12:25:11;;;;;;;24.87;19.03;;;;;;;;;;5098980;28;20499;-74
2022/12/11 12:27:40;;;;;;;29.00;21.90;;;;;;;;;;5098020;28;20778;-76
2022/12/11 12:30:13;;;;;;;27.43;17.87;;;;;;;;;;5100268;28;20407;-73
2022/12/11 12:33:00;;;;;;;27.97;21.53;;;;;;;;;;5098683;28;20874;-75
2022/12/11 12:35:26;;;;;;;27.87;21.83;;;;;;;;;;5113641;22;20487;-70
2022/12/11 12:37:52;;;;;;;29.50;19.27;;;;;;;;;;5077912;28;20460;-70
2022/12/11 12:40:24;;;;;;;28.27;17.87;;;;;;;;;;5096700;28;20177;-70
2022/12/11 12:42:59;;;;;;;28.67;20.93;;;;;;;;;;5095859;28;20192;-70
2022/12/11 12:45:24;;;;;;;34.70;23.73;;;;;;;;;;5077940;28;20490;-70
2022/12/11 12:47:51;;;;;;;27.53;18.90;;;;;;;;;;5095610;28;20407;-70
2022/12/11 12:50:19;;;;;;;27.50;19.87;;;;;;;;;;5095919;28;20169;-70
2022/12/11 12:52:46;;;;;;;28.03;19.00;;;;;;;;;;5095621;28;20453;-70
2022/12/11 12:55:12;;;;;;;39.73;25.87;;;;;;;;;;5076961;28;20498;-70
2022/12/11 12:57:39;;;;;;;54.57;35.63;;;;;;;;;;5095736;28;20446;-70
2022/12/11 13:00:07;;;;;;;46.07;31.00;;;;;;;;;;5077068;28;20233;-70
2022/12/11 13:02:33;;;;;;;28.80;20.63;;;;;;;;;;5095674;28;20512;-69
2022/12/11 13:05:02;;;;;;;26.40;20.93;;;;;;;;;;5077540;28;20415;-71
2022/12/11 13:07:29;;;;;;;28.07;20.87;;;;;;;;;;5077020;28;20177;-70
2022/12/11 13:09:57;;;;;;;29.50;21.37;;;;;;;;;;5077159;28;20837;-71
2022/12/11 13:12:31;;;;;;;28.37;21.00;;;;;;;;;;5095387;28;20419;-70
2022/12/11 13:14:57;;;;;;;29.30;21.70;;;;;;;;;;5095273;28;20395;-71
2022/12/11 13:17:34;;;;;;;26.87;20.37;;;;;;;;;;5095255;28;20417;-67
2022/12/11 13:20:30;;;;;;;27.50;20.63;;;;;;;;;;5103386;28;20176;-70
2022/12/11 13:23:16;;;;;;;27.40;20.93;;;;;;;;;;5071261;28;20824;-70
2022/12/11 13:25:56;;;;;;;26.87;21.03;;;;;;;;;;5100793;28;20833;-70
2022/12/11 13:28:26;;;;;;;28.30;22.27;;;;;;;;;;5096564;28;20453;-70
2022/12/11 13:31:01;;;;;;;29.33;21.93;;;;;;;;;;5095594;28;20395;-70
2022/12/11 13:33:28;;;;;;;252.33;162.63;;;;;;;;;;5077507;28;20949;-68
2022/12/11 13:36:14;;;;;;;38.30;26.97;;;;;;;;;;5095005;28;20553;-69
2022/12/11 13:38:46;;;;;;;28.90;21.37;;;;;;;;;;5095928;28;20743;-70
2022/12/11 13:41:12;;;;;;;56.97;37.13;;;;;;;;;;5094821;28;20451;-69
2022/12/11 13:43:41;;;;;;;36.80;25.77;;;;;;;;;;5094481;28;20437;-70
2022/12/11 13:46:10;;;;;;;32.90;22.97;;;;;;;;;;5095004;28;20470;-69
2022/12/11 13:48:43;;;;;;;29.43;21.17;;;;;;;;;;5076758;28;20418;-70
2022/12/11 13:51:16;;;;;;;31.50;19.97;;;;;;;;;;5095538;28;20843;-70
2022/12/11 13:53:42;;;;;;;33.23;24.07;;;;;;;;;;5097024;28;20748;-70
2022/12/11 13:56:18;;;;;;;30.93;22.80;;;;;;;;;;5096298;28;20426;-70
2022/12/11 13:58:44;;;;;;;29.60;19.17;;;;;;;;;;5076389;28;20191;-70
2022/12/11 14:01:16;;;;;;;32.70;23.40;;;;;;;;;;5076643;28;20458;-70
2022/12/11 14:03:53;;;;;;;26.93;19.03;;;;;;;;;;5076237;28;20998;-70
2022/12/11 14:06:19;;;;;;;30.53;20.67;;;;;;;;;;5094405;28;20834;-70
2022/12/11 14:08:47;;;;;;;27.77;18.80;;;;;;;;;;5094828;28;20414;-70
2022/12/11 14:11:20;;;;;;;73.37;55.30;;;;;;;;;;5094821;28;20445;-70
2022/12/11 14:13:47;;;;;;;28.97;18.83;;;;;;;;;;5095060;28;20475;-70
2022/12/11 14:16:20;;;;;;;36.60;25.73;;;;;;;;;;5094242;28;21011;-70
2022/12/11 14:18:48;;;;;;;39.27;28.50;;;;;;;;;;5093959;28;20419;-70
2022/12/11 14:21:18;;;;;;;37.83;22.30;;;;;;;;;;5076078;28;20815;-68
2022/12/11 14:23:50;;;;;;;27.97;19.23;;;;;;;;;;5094498;28;20810;-69
2022/12/11 14:26:17;;;;;;;25.80;19.27;;;;;;;;;;5076033;28;20454;-72
2022/12/11 14:28:44;;;;;;;30.07;23.00;;;;;;;;;;5075946;28;20417;-70
2022/12/11 14:31:13;;;;;;;26.20;18.60;;;;;;;;;;5094449;28;20443;-70